createdAt,value
2024-02-26T18:31:48.755Z,14.40
2024-02-26T18:34:16.063Z,11.50
2024-02-26T18:36:44.626Z,12.05
2024-02-26T18:39:12.117Z,11.15
2024-02-26T18:41:39.172Z,11.15
2024-02-26T18:44:06.268Z,13.40
2024-02-26T18:46:35.421Z,12.88
2024-02-26T18:49:02.708Z,11.18
2024-02-26T18:51:29.852Z,13.70
2024-02-26T18:53:56.946Z,11.68
2024-02-26T18:56:24.258Z,13.82
2024-02-26T18:58:51.457Z,15.68
2024-02-26T19:01:18.542Z,14.07
2024-02-26T19:03:45.881Z,14.52
2024-02-26T19:06:17.656Z,14.15
2024-02-26T19:08:44.833Z,13.68
2024-02-26T19:11:12.083Z,12.85
2024-02-26T19:13:43.499Z,12.65
2024-02-26T19:16:10.548Z,10.82
2024-02-26T19:18:37.886Z,10.60
2024-02-26T19:21:05.471Z,8.88
2024-02-26T19:23:34.693Z,9.63
2024-02-26T19:26:01.984Z,9.05
2024-02-26T19:28:29.066Z,11.02
2024-02-26T19:30:56.155Z,12.73
2024-02-26T19:33:23.422Z,14.07
2024-02-26T19:35:50.557Z,15.20
2024-02-26T19:38:21.049Z,11.73
2024-02-26T19:40:48.374Z,11.25
2024-02-26T19:43:16.386Z,14.85
2024-02-26T19:45:43.696Z,11.80
2024-02-26T19:48:10.927Z,13.30
2024-02-26T19:50:38.761Z,11.73
2024-02-26T19:53:06.086Z,12.68
2024-02-26T19:55:34.752Z,14.45
2024-02-26T19:58:04.233Z,11.65
2024-02-26T20:00:32.013Z,12.35
2024-02-26T20:02:59.231Z,11.63
2024-02-26T20:05:26.417Z,12.65
2024-02-26T20:07:53.569Z,11.60
2024-02-26T20:10:20.673Z,10.77
2024-02-26T20:12:47.898Z,10.90
2024-02-26T20:15:15.062Z,12.68
2024-02-26T20:17:42.224Z,11.52
2024-02-26T20:20:09.700Z,12.05
2024-02-26T20:27:11.522Z,11.27
2024-02-26T20:29:39.877Z,12.23
2024-02-26T20:32:07.320Z,10.52
2024-02-26T20:34:34.787Z,12.40
2024-02-26T20:37:03.173Z,12.68
2024-02-26T20:39:30.527Z,14.73
2024-02-26T20:41:57.883Z,21.75
2024-02-26T20:44:24.983Z,17.13
2024-02-26T20:46:56.757Z,18.33
2024-02-26T20:49:24.044Z,17.98
2024-02-26T20:51:51.171Z,15.13
2024-02-26T20:54:18.809Z,19.83
2024-02-26T20:56:46.939Z,19.10
2024-02-26T20:59:14.348Z,17.58
2024-02-26T21:01:41.487Z,18.33
2024-02-26T21:04:09.006Z,18.40
2024-02-26T21:06:36.950Z,16.90
2024-02-26T21:09:10.130Z,16.35
2024-02-26T21:11:37.480Z,18.85
2024-02-26T21:14:05.286Z,17.17
2024-02-26T21:16:32.366Z,16.25
2024-02-26T21:19:00.727Z,18.50
2024-02-26T21:21:29.587Z,15.73
2024-02-26T21:23:58.321Z,15.52
2024-02-26T21:26:26.642Z,15.43
2024-02-26T21:28:53.885Z,17.23
2024-02-26T21:31:21.053Z,13.18
2024-02-26T21:33:48.784Z,15.30
2024-02-26T21:36:16.173Z,15.20
2024-02-26T21:38:50.181Z,17.13
2024-02-26T21:41:19.936Z,19.67
2024-02-26T21:43:51.115Z,15.88
2024-02-26T21:48:45.355Z,14.43
2024-02-26T21:51:12.803Z,11.23
2024-02-26T21:53:40.198Z,14.48
2024-02-26T21:56:08.573Z,13.85
2024-02-26T21:58:36.185Z,13.48
2024-02-26T22:01:03.769Z,13.68
2024-02-26T22:03:31.175Z,13.60
2024-02-26T22:05:58.310Z,15.10
2024-02-26T22:08:25.687Z,12.57
2024-02-26T22:10:54.637Z,11.98
2024-02-26T22:13:22.304Z,13.40
2024-02-26T22:15:49.432Z,14.77
2024-02-26T22:18:16.685Z,12.40
2024-02-26T22:20:44.905Z,14.10
2024-02-26T22:23:11.977Z,13.70
2024-02-26T22:25:39.437Z,12.32
2024-02-26T22:28:06.518Z,13.40
2024-02-26T22:30:34.153Z,12.07
2024-02-26T22:33:01.554Z,14.80
2024-02-26T22:35:28.740Z,14.13
2024-02-26T22:37:55.816Z,11.52
2024-02-26T22:40:23.010Z,12.85
2024-02-26T22:42:56.627Z,9.15
2024-02-26T22:45:25.544Z,9.23
2024-02-26T22:47:55.002Z,10.18
2024-02-26T22:50:22.223Z,11.18
2024-02-26T22:52:54.731Z,9.40
2024-02-26T22:55:25.259Z,9.45
2024-02-26T22:57:56.443Z,9.25
2024-02-26T23:00:33.710Z,9.80
2024-02-26T23:03:01.694Z,9.07
2024-02-26T23:05:29.163Z,8.32
2024-02-26T23:07:56.987Z,8.57
2024-02-26T23:10:24.702Z,8.88
2024-02-26T23:12:55.161Z,8.68
2024-02-26T23:15:22.776Z,9.15
2024-02-26T23:17:55.397Z,10.00
2024-02-26T23:20:23.364Z,8.63
2024-02-26T23:22:55.451Z,8.57
2024-02-26T23:25:22.576Z,7.85
2024-02-26T23:27:52.475Z,9.27
2024-02-26T23:30:20.843Z,8.13
2024-02-26T23:32:48.250Z,8.25
2024-02-26T23:35:15.386Z,8.48
2024-02-26T23:37:42.443Z,7.55
2024-02-26T23:40:09.494Z,8.23
2024-02-26T23:42:37.960Z,9.00
2024-02-26T23:45:06.488Z,7.65
2024-02-26T23:47:34.224Z,8.63
2024-02-26T23:50:01.313Z,7.40
2024-02-26T23:52:28.384Z,8.10
2024-02-26T23:54:55.515Z,7.93
2024-02-26T23:57:22.608Z,7.40
2024-02-26T23:59:49.791Z,9.02
